Time;durP1;ratioP1;P1;durP2;ratioP2;P2;SDS_P1;SDS_P2;PMS_P1;PMS_P2;Temp;Humidity;BMP_temperature;BMP_pressure;BME280_temperature;BME280_humidity;BME280_pressure;Samples;Min_cycle;Max_cycle;Signal;HPM_P1;HPM_P2
2022/07/11 00:02:11;;;;;;;2.20;1.13;;;;;;;16.64;63.93;98762.69;5073536;28;20291;-69
2022/07/11 00:04:39;;;;;;;2.07;1.00;;;;;;;16.65;64.62;98767.00;5073319;28;20670;-69
2022/07/11 00:07:06;;;;;;;2.13;0.93;;;;;;;16.70;64.52;98761.72;5073262;28;20207;-69
2022/07/11 00:09:33;;;;;;;2.07;1.00;;;;;;;16.68;64.12;98763.84;5073442;28;20311;-69
2022/07/11 00:12:01;;;;;;;1.27;0.90;;;;;;;16.73;64.02;98761.25;5073143;28;20235;-68
2022/07/11 00:14:28;;;;;;;2.00;1.00;;;;;;;16.68;64.60;98758.47;5073407;28;20320;-68
2022/07/11 00:16:55;;;;;;;1.03;0.90;;;;;;;16.66;64.40;98751.72;5073184;28;20298;-69
2022/07/11 00:19:22;;;;;;;3.03;1.00;;;;;;;16.61;65.24;98752.41;5073059;28;20806;-69
2022/07/11 00:21:50;;;;;;;2.40;1.20;;;;;;;16.60;65.15;98737.38;5073436;28;20204;-68
2022/07/11 00:24:17;;;;;;;2.13;1.20;;;;;;;16.55;65.24;98742.66;5073413;28;20254;-69
2022/07/11 00:26:44;;;;;;;1.33;1.00;;;;;;;16.55;65.78;98739.97;5072987;28;20612;-69
2022/07/11 00:29:11;;;;;;;1.00;1.00;;;;;;;16.65;65.54;98742.84;5073310;28;20252;-68
2022/07/11 00:31:37;;;;;;;1.40;1.07;;;;;;;16.49;66.45;98743.63;5073029;28;20295;-69
2022/07/11 00:34:04;;;;;;;1.23;1.03;;;;;;;16.48;66.27;98744.69;5073174;28;20292;-69
2022/07/11 00:36:31;;;;;;;1.87;1.30;;;;;;;16.37;67.34;98744.69;5073273;28;20214;-69
2022/07/11 00:38:57;;;;;;;3.33;1.20;;;;;;;16.31;67.53;98753.69;5073205;28;20235;-69
2022/07/11 00:41:24;;;;;;;4.30;1.37;;;;;;;16.32;67.66;98737.34;5073206;28;20292;-69
2022/07/11 00:43:59;;;;;;;1.70;1.43;;;;;;;16.25;68.26;98744.75;5072904;28;20679;-69
2022/07/11 00:46:27;;;;;;;2.73;1.37;;;;;;;16.22;68.46;98739.84;5072960;28;20223;-69
2022/07/11 00:48:54;;;;;;;1.57;1.30;;;;;;;16.22;68.86;98739.84;5072958;28;20247;-68
2022/07/11 00:51:21;;;;;;;1.47;1.33;;;;;;;16.20;69.25;98741.13;5073052;28;20231;-69
2022/07/11 00:53:52;;;;;;;1.93;1.30;;;;;;;16.12;69.39;98739.63;5075214;28;20204;-69
2022/07/11 00:56:24;;;;;;;1.37;1.27;;;;;;;16.18;69.51;98733.31;5076908;28;20311;-69
2022/07/11 00:58:51;;;;;;;1.37;1.27;;;;;;;16.10;69.98;98727.53;5076832;28;20311;-69
2022/07/11 01:01:19;;;;;;;3.07;1.20;;;;;;;16.06;70.80;98726.38;5076925;28;20209;-69
2022/07/11 01:03:46;;;;;;;2.13;1.20;;;;;;;16.11;70.15;98726.47;5077368;28;20287;-69
2022/07/11 01:06:13;;;;;;;1.70;1.60;;;;;;;16.11;70.46;98724.56;5076453;28;20566;-69
2022/07/11 01:08:40;;;;;;;1.50;1.30;;;;;;;16.12;69.84;98728.09;5076685;28;20232;-69
2022/07/11 01:11:12;;;;;;;2.30;1.60;;;;;;;16.09;70.17;98723.19;5076269;28;20765;-69
2022/07/11 01:13:39;;;;;;;1.33;1.20;;;;;;;16.13;70.02;98719.81;5076651;28;20189;-69
2022/07/11 01:16:16;;;;;;;1.27;1.17;;;;;;;16.18;70.06;98722.59;5076562;28;20224;-69
2022/07/11 01:18:54;;;;;;;2.27;1.67;;;;;;;16.24;69.92;98720.81;5076482;28;20228;-69
2022/07/11 01:21:31;;;;;;;1.40;1.30;;;;;;;16.19;69.64;98726.88;5076570;28;20283;-69
2022/07/11 01:23:59;;;;;;;2.70;1.70;;;;;;;16.17;69.83;98720.13;5076209;28;20188;-69
2022/07/11 01:26:26;;;;;;;2.00;1.40;;;;;;;16.21;70.00;98721.28;5076141;28;20211;-69
2022/07/11 01:28:55;;;;;;;1.70;1.50;;;;;;;15.98;71.65;98722.19;5076294;28;20260;-69
2022/07/11 01:31:21;;;;;;;2.07;1.60;;;;;;;16.01;71.83;98720.91;5075997;28;20644;-69
2022/07/11 01:33:48;;;;;;;1.83;1.40;;;;;;;15.98;71.97;98716.81;5075988;28;20240;-69
2022/07/11 01:36:14;;;;;;;2.23;1.40;;;;;;;16.00;72.25;98722.75;5076152;28;20307;-69
2022/07/11 01:38:41;;;;;;;1.90;1.53;;;;;;;15.92;72.69;98715.06;5076115;28;20224;-69
2022/07/11 01:41:08;;;;;;;1.50;1.40;;;;;;;15.90;72.72;98719.88;5076118;28;20231;-69
2022/07/11 01:43:34;;;;;;;2.37;1.50;;;;;;;15.84;73.06;98704.69;5075815;28;20681;-69
2022/07/11 01:46:01;;;;;;;2.33;1.30;;;;;;;15.83;73.20;98711.13;5076057;28;20280;-69
2022/07/11 01:48:27;;;;;;;1.77;1.40;;;;;;;15.84;73.44;98711.94;5075683;28;20727;-68
2022/07/11 01:50:54;;;;;;;1.43;1.33;;;;;;;15.69;74.22;98714.31;5075969;28;20299;-69
2022/07/11 01:53:20;;;;;;;2.53;1.60;;;;;;;15.79;73.73;98718.00;5075626;28;20623;-68
2022/07/11 01:55:47;;;;;;;1.77;1.60;;;;;;;15.79;73.85;98709.16;5075779;28;20224;-69
2022/07/11 01:58:13;;;;;;;2.03;1.73;;;;;;;15.78;74.12;98710.22;5075595;28;20311;-69
2022/07/11 02:00:40;;;;;;;1.70;1.60;;;;;;;15.74;74.09;98709.84;5075757;28;20287;-69
2022/07/11 02:03:06;;;;;;;1.63;1.43;;;;;;;15.75;73.98;98705.31;5075704;28;20287;-69
2022/07/11 02:05:33;;;;;;;2.23;1.73;;;;;;;15.69;74.49;98712.44;5075346;28;20291;-69
2022/07/11 02:08:14;;;;;;;1.60;1.50;;;;;;;15.75;74.44;98710.69;5075597;28;20288;-69
2022/07/11 02:10:46;;;;;;;2.17;1.43;;;;;;;15.75;74.53;98702.63;5075275;28;20216;-69
2022/07/11 02:13:15;;;;;;;1.60;1.50;;;;;;;15.74;74.61;98701.03;5075266;28;20669;-69
2022/07/11 02:15:43;;;;;;;1.97;1.67;;;;;;;15.81;74.41;98707.88;5075456;28;20578;-69
2022/07/11 02:18:10;;;;;;;1.80;1.70;;;;;;;15.73;74.81;98704.72;5075412;28;20211;-69
2022/07/11 02:20:39;;;;;;;1.70;1.60;;;;;;;15.74;75.01;98699.13;5075455;28;20204;-69
2022/07/11 02:23:06;;;;;;;2.30;1.60;;;;;;;15.77;74.98;98709.41;5075387;28;20204;-69
2022/07/11 02:25:34;;;;;;;1.77;1.67;;;;;;;15.75;75.02;98705.31;5075301;28;20295;-69
2022/07/11 02:28:01;;;;;;;1.77;1.67;;;;;;;15.73;75.96;98702.03;5075173;28;20545;-69
2022/07/11 02:30:28;;;;;;;1.77;1.67;;;;;;;15.75;75.54;98697.28;5075206;28;20204;-69
2022/07/11 02:32:54;;;;;;;2.50;1.63;;;;;;;15.76;75.80;98702.41;5075160;28;20217;-69
2022/07/11 02:35:21;;;;;;;1.83;1.67;;;;;;;15.80;75.21;98708.09;5074995;28;20306;-69
2022/07/11 02:37:48;;;;;;;4.30;1.70;;;;;;;15.83;75.02;98704.97;5074723;28;20746;-69
2022/07/11 02:40:15;;;;;;;3.33;1.80;;;;;;;15.82;75.62;98701.47;5074894;28;20320;-69
2022/07/11 02:42:41;;;;;;;2.73;1.93;;;;;;;15.79;75.12;98698.44;5074955;28;20295;-69
2022/07/11 02:45:08;;;;;;;2.50;1.87;;;;;;;15.89;75.02;98701.31;5074599;28;20232;-69
2022/07/11 02:47:38;;;;;;;3.80;1.87;;;;;;;15.92;74.65;98704.34;5074757;28;20204;-69
2022/07/11 02:50:06;;;;;;;3.63;1.50;;;;;;;15.86;74.72;98702.63;5074320;28;20587;-69
2022/07/11 02:52:32;;;;;;;1.60;1.50;;;;;;;15.85;74.77;98701.00;5074409;28;20219;-69
2022/07/11 02:54:58;;;;;;;2.53;1.70;;;;;;;15.96;74.70;98707.38;5074329;28;20224;-69
2022/07/11 02:57:25;;;;;;;1.57;1.47;;;;;;;15.94;75.45;98704.94;5074333;28;20205;-68
2022/07/11 02:59:51;;;;;;;1.73;1.63;;;;;;;15.91;74.84;98705.41;5074198;28;20235;-68
2022/07/11 03:02:18;;;;;;;3.37;1.70;;;;;;;15.89;75.17;98710.19;5074412;28;20295;-69
2022/07/11 03:04:44;;;;;;;1.80;1.70;;;;;;;15.90;75.18;98714.50;5074320;28;20292;-69
2022/07/11 03:07:11;;;;;;;2.10;1.70;;;;;;;15.90;75.48;98709.13;5074054;28;20303;-69
2022/07/11 03:09:37;;;;;;;2.60;1.77;;;;;;;15.90;75.42;98709.13;5074135;28;20221;-69
2022/07/11 03:12:04;;;;;;;1.87;1.77;;;;;;;15.91;75.70;98712.63;5075054;28;20224;-69
2022/07/11 03:14:30;;;;;;;2.70;2.00;;;;;;;15.90;75.59;98717.19;5074278;28;20204;-69
2022/07/11 03:16:57;;;;;;;2.00;1.80;;;;;;;15.94;76.46;98712.16;5073268;28;20224;-68
2022/07/11 03:19:23;;;;;;;2.80;2.00;;;;;;;15.98;75.63;98705.28;5073445;28;20228;-69
2022/07/11 03:21:50;;;;;;;2.10;1.90;;;;;;;15.95;75.85;98706.56;5073796;28;20292;-69
2022/07/11 03:24:16;;;;;;;1.80;1.70;;;;;;;15.89;76.10;98714.72;5073483;28;20204;-69
2022/07/11 03:26:42;;;;;;;2.37;1.97;;;;;;;15.90;76.18;98702.94;5073430;28;20667;-69
2022/07/11 03:29:09;;;;;;;2.47;1.80;;;;;;;15.99;76.35;98712.25;5073546;28;20224;-69
2022/07/11 03:31:35;;;;;;;2.00;1.90;;;;;;;15.96;76.36;98705.50;5074495;28;20205;-69
2022/07/11 03:34:02;;;;;;;2.20;2.00;;;;;;;15.95;76.70;98706.56;5073260;28;20746;-68
2022/07/11 03:36:28;;;;;;;2.20;2.00;;;;;;;15.95;76.90;98709.25;5073797;28;20326;-68
2022/07/11 03:38:55;;;;;;;2.20;2.00;;;;;;;15.98;76.96;98706.09;5073378;28;20231;-69
2022/07/11 03:41:22;;;;;;;2.17;1.90;;;;;;;15.93;77.02;98710.53;5073467;28;20213;-69
2022/07/11 03:43:48;;;;;;;2.13;2.00;;;;;;;15.91;77.29;98710.75;5072938;28;20286;-69
2022/07/11 03:46:14;;;;;;;2.37;2.17;;;;;;;15.94;77.11;98715.66;5073373;28;20290;-69
2022/07/11 03:48:41;;;;;;;2.70;1.90;;;;;;;15.94;77.07;98710.31;5073162;28;20719;-69
2022/07/11 03:51:07;;;;;;;2.00;1.90;;;;;;;15.94;77.28;98712.97;5073285;28;20292;-69
2022/07/11 03:53:34;;;;;;;2.30;2.10;;;;;;;15.96;77.26;98710.06;5072951;28;20308;-68
2022/07/11 03:56:00;;;;;;;2.20;2.00;;;;;;;15.99;77.06;98707.72;5073255;28;20228;-69
2022/07/11 03:58:26;;;;;;;2.40;2.00;;;;;;;16.03;77.05;98703.50;5073392;28;20224;-69
2022/07/11 04:00:53;;;;;;;2.90;2.30;;;;;;;16.04;77.36;98705.13;5073278;28;20216;-69
2022/07/11 04:03:19;;;;;;;2.30;2.10;;;;;;;16.02;77.94;98701.84;5072972;28;20204;-69
2022/07/11 04:05:46;;;;;;;2.60;2.40;;;;;;;16.07;76.64;98703.84;5072680;28;20200;-69
2022/07/11 04:08:12;;;;;;;2.57;2.37;;;;;;;16.05;76.93;98701.41;5072782;28;20741;-69
2022/07/11 04:10:38;;;;;;;3.37;2.00;;;;;;;16.06;77.16;98705.69;5072999;28;20299;-69
2022/07/11 04:13:05;;;;;;;2.53;2.30;;;;;;;16.14;77.08;98705.31;5073685;28;20206;-69
2022/07/11 04:15:31;;;;;;;2.53;2.33;;;;;;;16.18;78.00;98705.66;5073070;28;20392;-69
2022/07/11 04:17:57;;;;;;;2.67;2.47;;;;;;;16.15;77.09;98712.31;5073022;28;20211;-69
2022/07/11 04:20:24;;;;;;;2.93;2.43;;;;;;;16.16;77.31;98713.97;5073224;28;20292;-69
2022/07/11 04:22:50;;;;;;;2.63;2.27;;;;;;;16.23;77.71;98714.63;5072949;28;20211;-69
2022/07/11 04:25:17;;;;;;;2.73;2.53;;;;;;;16.17;76.65;98712.09;5072569;28;20566;-69
2022/07/11 04:27:43;;;;;;;2.53;2.33;;;;;;;16.19;77.33;98712.69;5075130;28;20299;-69
2022/07/11 04:30:10;;;;;;;3.37;2.50;;;;;;;16.22;77.52;98713.00;5077238;28;20220;-69
2022/07/11 04:32:36;;;;;;;3.10;2.77;;;;;;;16.32;76.70;98707.81;5076890;28;20211;-69
2022/07/11 04:35:04;;;;;;;4.40;2.80;;;;;;;16.36;77.45;98710.84;5077158;28;20200;-70
2022/07/11 04:37:30;;;;;;;3.57;2.70;;;;;;;16.33;77.31;98704.09;5077044;28;20287;-70
2022/07/11 04:39:57;;;;;;;2.63;2.43;;;;;;;16.32;77.42;98707.81;5076803;28;20220;-70
2022/07/11 04:42:23;;;;;;;3.40;2.70;;;;;;;16.38;77.31;98706.88;5076268;28;20762;-70
2022/07/11 04:44:49;;;;;;;3.30;2.30;;;;;;;16.41;77.40;98716.34;5076790;28;20208;-70
2022/07/11 04:47:16;;;;;;;2.77;2.43;;;;;;;16.42;77.87;98704.56;5076816;28;20200;-70
2022/07/11 04:49:46;;;;;;;3.07;2.60;;;;;;;16.41;77.35;98703.75;5076333;28;20714;-69
2022/07/11 04:52:12;;;;;;;4.57;2.70;;;;;;;16.46;76.03;98701.16;5076266;28;20576;-70
2022/07/11 04:54:39;;;;;;;3.47;2.60;;;;;;;16.52;75.51;98697.50;5076658;28;20291;-70
2022/07/11 04:57:06;;;;;;;3.93;2.50;;;;;;;16.52;76.00;98702.06;5076314;28;20766;-70
2022/07/11 04:59:32;;;;;;;3.63;2.60;;;;;;;16.62;76.14;98696.88;5076130;28;20707;-70
2022/07/11 05:01:59;;;;;;;3.30;3.00;;;;;;;16.59;76.75;98698.16;5076315;28;20204;-70
2022/07/11 05:04:25;;;;;;;3.10;2.90;;;;;;;16.61;77.09;98701.41;5076480;28;20210;-70
2022/07/11 05:06:52;;;;;;;3.83;2.80;;;;;;;16.63;76.26;98710.06;5075772;28;20608;-70
2022/07/11 05:09:18;;;;;;;3.27;2.90;;;;;;;16.70;76.86;98708.03;5075903;28;20227;-70
2022/07/11 05:11:44;;;;;;;3.10;2.63;;;;;;;16.69;76.27;98713.66;5075728;28;20216;-70
2022/07/11 05:14:11;;;;;;;3.00;2.50;;;;;;;16.74;76.21;98711.06;5075358;28;20542;-70
2022/07/11 05:16:37;;;;;;;3.13;2.70;;;;;;;16.79;76.61;98719.19;5075386;28;20231;-70
2022/07/11 05:19:04;;;;;;;3.37;3.10;;;;;;;16.86;75.73;98717.97;5075455;28;20752;-70
2022/07/11 05:21:30;;;;;;;3.07;2.87;;;;;;;16.82;75.72;98708.78;5075371;28;20208;-70
2022/07/11 05:23:56;;;;;;;2.87;2.63;;;;;;;16.88;75.71;98723.91;5075350;28;20207;-70
2022/07/11 05:26:23;;;;;;;4.03;2.90;;;;;;;16.89;75.82;98709.44;5075047;28;20658;-70
2022/07/11 05:28:49;;;;;;;3.67;2.90;;;;;;;16.91;75.69;98717.22;5075558;28;20256;-70
2022/07/11 05:31:15;;;;;;;2.83;2.60;;;;;;;16.98;75.16;98716.03;5076217;28;20232;-70
2022/07/11 05:33:42;;;;;;;3.07;2.77;;;;;;;16.95;75.29;98718.38;5075696;28;20205;-70
2022/07/11 05:36:08;;;;;;;3.80;2.73;;;;;;;17.04;75.99;98716.91;5075435;28;20239;-70
2022/07/11 05:38:35;;;;;;;3.80;3.23;;;;;;;17.01;74.44;98725.50;5074742;28;20770;-70
2022/07/11 05:41:01;;;;;;;3.27;2.97;;;;;;;17.09;74.20;98720.50;5075493;28;20296;-69
2022/07/11 05:43:28;;;;;;;4.30;3.60;;;;;;;16.96;74.37;98725.41;5074917;28;20205;-70
2022/07/11 05:45:55;;;;;;;3.97;3.10;;;;;;;16.96;74.42;98731.56;5075066;28;20287;-70
2022/07/11 05:48:21;;;;;;;3.87;3.37;;;;;;;17.11;74.49;98731.84;5075353;28;20311;-70
2022/07/11 05:50:47;;;;;;;4.17;2.90;;;;;;;17.26;74.28;98732.09;5075384;28;20207;-69
2022/07/11 05:53:14;;;;;;;4.43;2.80;;;;;;;17.33;73.97;98737.28;5075072;28;20651;-70
2022/07/11 05:55:41;;;;;;;2.90;2.70;;;;;;;17.38;73.96;98732.78;5074706;28;20233;-70
2022/07/11 05:58:07;;;;;;;3.93;3.23;;;;;;;17.35;73.34;98735.16;5074427;28;20211;-70
2022/07/11 06:00:34;;;;;;;4.50;3.60;;;;;;;17.37;72.49;98733.06;5074897;28;20315;-69
2022/07/11 06:03:00;;;;;;;3.83;3.47;;;;;;;17.33;73.46;98726.53;5075210;28;20201;-68
2022/07/11 06:05:27;;;;;;;3.70;3.00;;;;;;;17.40;74.12;98733.41;5075044;28;20622;-69
2022/07/11 06:10:38;;;;;;;4.93;2.70;;;;;;;17.47;74.09;98725.16;5075001;28;20245;-68
2022/07/11 06:13:04;;;;;;;3.00;2.80;;;;;;;17.42;73.15;98731.28;5074003;28;20212;-69
2022/07/11 06:15:31;;;;;;;4.20;3.13;;;;;;;17.48;73.54;98738.38;5054690;28;20300;-69
2022/07/11 06:17:57;;;;;;;4.53;3.17;;;;;;;17.60;73.31;98735.59;5054939;28;20296;-69
2022/07/11 06:20:24;;;;;;;4.93;3.37;;;;;;;17.50;72.66;98738.13;5054663;28;20235;-69
2022/07/11 06:22:50;;;;;;;3.50;2.87;;;;;;;17.60;72.10;98733.69;5054608;28;20296;-69
2022/07/11 06:25:16;;;;;;;3.33;3.03;;;;;;;17.63;71.76;98738.59;5054827;28;20205;-69
2022/07/11 06:27:43;;;;;;;4.03;3.73;;;;;;;17.59;72.25;98736.63;5054703;28;20197;-70
2022/07/11 06:30:09;;;;;;;3.57;3.27;;;;;;;17.53;71.86;98738.44;5054484;28;20233;-69
2022/07/11 06:32:36;;;;;;;4.50;3.20;;;;;;;17.62;71.57;98736.13;5054592;28;20206;-70
2022/07/11 06:35:03;;;;;;;3.37;3.07;;;;;;;17.78;70.44;98740.69;5054600;28;20209;-69
2022/07/11 06:37:30;;;;;;;4.03;3.30;;;;;;;17.70;71.30;98731.16;5054421;28;20228;-69
2022/07/11 06:39:57;;;;;;;5.50;3.20;;;;;;;17.80;71.31;98743.94;5054445;28;20278;-69
2022/07/11 06:42:23;;;;;;;4.00;3.50;;;;;;;17.49;71.40;98729.25;5053869;28;20205;-69
2022/07/11 06:44:49;;;;;;;4.27;3.70;;;;;;;17.32;72.33;98738.34;5054267;28;20664;-71
2022/07/11 06:47:16;;;;;;;3.70;3.40;;;;;;;17.59;71.82;98737.44;5053698;28;20687;-71
2022/07/11 06:49:42;;;;;;;3.77;3.40;;;;;;;17.72;70.68;98734.41;5054062;28;20236;-71
2022/07/11 06:52:08;;;;;;;3.33;3.03;;;;;;;17.77;71.27;98736.34;5053392;28;20298;-71
2022/07/11 06:54:35;;;;;;;3.73;3.00;;;;;;;17.81;71.06;98738.31;5053793;28;20742;-72
2022/07/11 06:57:01;;;;;;;3.73;3.10;;;;;;;18.15;69.08;98734.44;5053992;28;20247;-71
2022/07/11 06:59:27;;;;;;;3.70;3.40;;;;;;;18.11;69.67;98732.50;5054036;28;20232;-71
2022/07/11 07:01:54;;;;;;;5.03;3.27;;;;;;;18.19;69.99;98737.44;5053662;28;20336;-71
2022/07/11 07:04:20;;;;;;;3.50;3.17;;;;;;;18.27;69.97;98732.44;5054041;28;20292;-71
2022/07/11 07:06:47;;;;;;;3.90;3.03;;;;;;;18.29;69.13;98730.31;5053998;28;20276;-71
2022/07/11 07:09:13;;;;;;;3.50;2.80;;;;;;;18.33;68.81;98733.34;5053185;28;20229;-71
2022/07/11 07:11:40;;;;;;;3.53;2.83;;;;;;;18.47;68.69;98738.09;5053479;28;20255;-71
2022/07/11 07:14:06;;;;;;;3.33;3.03;;;;;;;18.50;67.76;98732.19;5053551;28;20288;-71
2022/07/11 07:16:34;;;;;;;3.50;2.77;;;;;;;18.97;66.66;98733.22;5053372;28;20224;-71
2022/07/11 07:19:00;;;;;;;6.17;2.90;;;;;;;18.69;66.98;98727.28;5053126;28;20704;-71
2022/07/11 07:21:27;;;;;;;3.37;2.60;;;;;;;18.62;66.81;98732.03;5053627;28;20229;-71
2022/07/11 07:23:53;;;;;;;2.40;2.20;;;;;;;18.69;66.72;98729.97;5053411;28;20208;-71
2022/07/11 07:26:19;;;;;;;4.60;2.40;;;;;;;18.75;66.44;98734.31;5053592;28;20284;-71
2022/07/11 07:28:46;;;;;;;3.50;2.70;;;;;;;18.97;65.67;98730.50;5053411;28;20311;-71
2022/07/11 07:31:13;;;;;;;2.60;2.37;;;;;;;19.00;66.16;98735.38;5053445;28;20263;-75
2022/07/11 07:33:39;;;;;;;2.47;2.27;;;;;;;19.19;65.09;98731.22;5053585;28;20212;-71
2022/07/11 07:36:06;;;;;;;3.30;2.20;;;;;;;19.10;65.29;98723.88;5053493;28;20235;-71
2022/07/11 07:38:32;;;;;;;3.13;2.70;;;;;;;18.71;66.06;98730.50;5053289;28;20666;-71
2022/07/11 07:40:59;;;;;;;3.00;2.73;;;;;;;18.95;65.89;98734.53;5053556;28;20299;-71
2022/07/11 07:43:25;;;;;;;2.87;2.03;;;;;;;19.22;64.87;98736.13;5053146;28;20316;-71
2022/07/11 07:45:52;;;;;;;4.17;2.50;;;;;;;19.16;63.60;98730.94;5052791;28;20213;-71
2022/07/11 07:48:18;;;;;;;3.53;2.50;;;;;;;19.48;63.85;98734.44;5053111;28;20231;-71
2022/07/11 07:50:44;;;;;;;4.50;2.43;;;;;;;19.29;64.32;98733.22;5053041;28;20262;-72
2022/07/11 07:53:11;;;;;;;2.87;2.10;;;;;;;19.32;62.59;98727.31;5053199;28;20208;-71
2022/07/11 07:55:37;;;;;;;2.40;1.90;;;;;;;19.23;61.86;98724.28;5052791;28;20209;-72
2022/07/11 07:58:04;;;;;;;3.30;2.00;;;;;;;18.78;63.93;98723.84;5053470;28;20229;-71
2022/07/11 08:03:14;;;;;;;1.97;1.80;;;;;;;19.09;63.32;98720.34;5052645;28;20277;-71
2022/07/11 08:05:40;;;;;;;3.00;2.20;;;;;;;19.31;62.56;98721.09;5053279;28;20201;-71
2022/07/11 08:08:07;;;;;;;2.77;1.80;;;;;;;19.44;62.84;98715.28;5053165;28;20201;-70
2022/07/11 08:10:33;;;;;;;2.50;2.10;;;;;;;19.64;62.70;98718.09;5052537;28;20786;-71
2022/07/11 08:13:01;;;;;;;2.03;1.83;;;;;;;19.50;61.58;98716.91;5052906;28;20255;-71
2022/07/11 08:15:27;;;;;;;2.13;1.93;;;;;;;19.80;61.32;98716.28;5052405;28;20659;-71
2022/07/11 08:17:54;;;;;;;2.37;1.70;;;;;;;20.15;60.28;98721.06;5052681;28;20231;-71
2022/07/11 08:20:21;;;;;;;3.10;1.83;;;;;;;19.82;59.60;98710.63;5052373;28;20212;-71
2022/07/11 08:22:47;;;;;;;2.03;1.83;;;;;;;19.84;59.20;98720.09;5052973;28;20292;-70
2022/07/11 08:25:13;;;;;;;2.20;1.50;;;;;;;19.45;60.07;98716.09;5052963;28;20292;-71
2022/07/11 08:27:40;;;;;;;2.00;1.67;;;;;;;19.77;59.31;98723.03;5053200;28;20300;-70
2022/07/11 08:30:09;;;;;;;1.60;1.50;;;;;;;19.97;59.18;98710.69;5052531;28;20279;-71
2022/07/11 08:32:39;;;;;;;2.63;1.43;;;;;;;20.04;58.78;98711.28;5052535;28;20219;-71
2022/07/11 08:35:05;;;;;;;1.47;1.37;;;;;;;20.04;59.45;98713.97;5052477;28;20205;-71
2022/07/11 08:37:32;;;;;;;3.03;1.73;;;;;;;19.86;59.44;98709.88;5052326;28;20220;-71
2022/07/11 08:39:58;;;;;;;1.80;1.30;;;;;;;19.60;58.44;98703.50;5052728;28;20587;-71
2022/07/11 08:42:29;;;;;;;1.73;1.50;;;;;;;19.92;57.24;98691.78;5052687;28;20296;-71
2022/07/11 08:44:57;;;;;;;1.43;1.30;;;;;;;19.87;58.16;98692.59;5052707;28;20415;-71
2022/07/11 08:47:25;;;;;;;1.77;1.33;;;;;;;20.15;58.36;98694.06;5053128;28;20292;-71
2022/07/11 08:49:53;;;;;;;1.40;1.30;;;;;;;20.39;56.15;98706.06;5052352;28;20317;-71
2022/07/11 08:52:21;;;;;;;1.63;1.13;;;;;;;20.44;56.00;98700.66;5053427;28;20300;-71
2022/07/11 08:54:48;;;;;;;1.33;1.23;;;;;;;20.52;54.63;98692.03;5052523;28;20255;-71
2022/07/11 08:57:15;;;;;;;1.00;1.00;;;;;;;20.71;55.28;98699.34;5053071;28;20241;-71
2022/07/11 08:59:43;;;;;;;3.50;1.30;;;;;;;21.30;52.07;98691.56;5052220;28;20221;-71
2022/07/11 09:02:10;;;;;;;1.20;1.10;;;;;;;20.97;53.50;98692.09;5052293;28;20728;-71
2022/07/11 09:04:37;;;;;;;1.40;1.30;;;;;;;21.13;52.43;98691.03;5052615;28;20288;-71
2022/07/11 09:07:03;;;;;;;1.10;1.10;;;;;;;21.21;52.65;98694.00;5053087;28;20201;-71
2022/07/11 09:09:30;;;;;;;2.00;1.30;;;;;;;21.28;53.36;98691.84;5052153;28;20308;-71
2022/07/11 09:11:58;;;;;;;1.33;1.23;;;;;;;21.36;52.82;98691.28;5052203;28;20681;-71
2022/07/11 09:14:33;;;;;;;2.20;1.20;;;;;;;21.68;52.94;98694.47;5053896;28;20206;-71
2022/07/11 09:17:02;;;;;;;1.50;1.30;;;;;;;21.71;53.91;98682.31;5056405;28;20224;-71
2022/07/11 09:19:31;;;;;;;2.00;1.40;;;;;;;21.89;52.74;98689.84;5056119;28;20332;-71
2022/07/11 09:25:23;;;;;;;1.23;1.23;;;;;;;21.84;53.20;98687.16;5055802;28;20259;-71
2022/07/11 09:28:05;;;;;;;1.53;1.33;;;;;;;22.16;50.42;98685.66;5055739;28;20292;-71
2022/07/11 09:30:39;;;;;;;3.10;1.40;;;;;;;20.82;53.13;98698.31;5055752;28;20508;-70
2022/07/11 09:33:09;;;;;;;1.30;1.20;;;;;;;21.87;51.70;98692.81;5056122;28;20193;-71
2022/07/11 09:35:45;;;;;;;1.40;1.20;;;;;;;22.12;49.16;98695.44;5055866;28;20205;-71
2022/07/11 09:38:13;;;;;;;1.10;1.00;;;;;;;21.00;51.34;98702.38;5055528;28;20209;-70
2022/07/11 09:40:44;;;;;;;0.90;0.90;;;;;;;21.62;50.78;98694.75;5055600;28;20209;-70
2022/07/11 09:43:10;;;;;;;1.20;1.10;;;;;;;21.90;50.01;98697.69;5055209;28;20651;-71
2022/07/11 09:45:37;;;;;;;1.60;1.07;;;;;;;21.89;49.13;98697.97;5055229;28;20580;-71
2022/07/11 09:48:14;;;;;;;2.67;0.87;;;;;;;21.52;49.40;98706.41;5055052;28;20664;-71
2022/07/11 09:50:56;;;;;;;1.27;0.90;;;;;;;20.13;51.70;98709.72;5055503;28;20196;-71
2022/07/11 09:53:22;;;;;;;2.47;0.90;;;;;;;20.67;51.81;98702.88;5054981;28;20209;-71
2022/07/11 09:55:50;;;;;;;0.90;0.80;;;;;;;20.91;51.43;98699.41;5054993;28;20575;-71
2022/07/11 09:58:18;;;;;;;0.93;0.93;;;;;;;21.17;50.68;98702.94;5054498;28;20251;-71
2022/07/11 10:00:46;;;;;;;1.20;1.03;;;;;;;21.31;51.29;98696.72;5055069;28;20204;-71
2022/07/11 10:03:13;;;;;;;0.80;0.80;;;;;;;21.28;49.99;98709.94;5055357;28;20216;-72
2022/07/11 10:05:40;;;;;;;1.47;0.90;;;;;;;21.45;50.08;98696.97;5055176;28;20288;-71
2022/07/11 10:08:06;;;;;;;1.70;0.93;;;;;;;20.79;50.74;98698.03;5054883;28;20211;-71
2022/07/11 10:10:34;;;;;;;1.10;1.03;;;;;;;20.97;51.61;98697.50;5054693;28;20308;-71
2022/07/11 10:13:00;;;;;;;1.10;1.00;;;;;;;21.41;51.31;98704.00;5054625;28;20202;-71
2022/07/11 10:15:36;;;;;;;1.30;1.20;;;;;;;21.58;51.94;98708.03;5054679;28;20296;-71
2022/07/11 10:18:03;;;;;;;0.90;0.90;;;;;;;21.81;52.27;98699.34;5054519;28;20678;-71
2022/07/11 10:21:05;;;;;;;1.07;1.07;;;;;;;21.92;50.89;98705.53;5054747;28;20668;-71
2022/07/11 10:23:39;;;;;;;2.37;1.17;;;;;;;21.87;49.85;98702.84;5053705;28;20185;-71
2022/07/11 10:26:46;;;;;;;1.00;1.00;;;;;;;21.77;50.42;98694.75;5053015;28;20635;-71
2022/07/11 10:29:21;;;;;;;1.25;0.90;;;;;;;22.18;49.30;98701.63;5054338;28;20221;-71
2022/07/11 10:32:04;;;;;;;1.00;0.90;;;;;;;22.24;48.68;98701.34;5053516;28;20284;-70
2022/07/11 10:34:30;;;;;;;0.98;0.98;;;;;;;22.73;47.86;98699.47;5054177;28;20193;-71
2022/07/11 10:37:02;;;;;;;1.17;1.00;;;;;;;22.98;47.63;98695.78;5054379;28;20229;-71
2022/07/11 10:39:29;;;;;;;1.20;1.10;;;;;;;23.08;46.90;98692.97;5054314;28;20275;-71
2022/07/11 10:41:57;;;;;;;0.90;0.90;;;;;;;23.10;46.45;98696.19;5054443;28;20296;-72
2022/07/11 10:44:24;;;;;;;1.10;1.10;;;;;;;22.88;46.52;98693.94;5054437;28;20292;-72
2022/07/11 10:46:51;;;;;;;1.05;1.05;;;;;;;22.66;46.45;98688.13;5054384;28;20295;-72
2022/07/11 10:49:23;;;;;;;1.08;1.00;;;;;;;23.02;46.91;98691.41;5054500;28;20225;-72
2022/07/11 10:52:00;;;;;;;1.23;1.13;;;;;;;23.34;45.70;98692.50;5054709;28;20617;-71
2022/07/11 10:54:48;;;;;;;1.05;1.05;;;;;;;22.94;47.03;98697.41;5054552;28;20350;-71
2022/07/11 10:57:15;;;;;;;1.48;1.02;;;;;;;22.91;46.03;98692.56;5054094;28;20213;-72
2022/07/11 11:00:00;;;;;;;0.90;0.90;;;;;;;22.97;46.71;98699.59;5053926;28;20225;-72
2022/07/11 11:02:28;;;;;;;1.77;1.02;;;;;;;22.71;47.09;98696.22;5053805;28;20938;-71
2022/07/11 11:04:59;;;;;;;1.40;1.30;;;;;;;22.70;46.37;98696.53;5054089;28;20205;-71
2022/07/11 11:07:48;;;;;;;1.27;1.17;;;;;;;22.62;46.63;98694.41;5053830;28;20240;-71
2022/07/11 11:10:29;;;;;;;1.00;1.00;;;;;;;22.70;45.95;98696.53;5054099;28;20324;-71
2022/07/11 11:13:05;;;;;;;1.15;1.05;;;;;;;22.77;45.72;98697.00;5053497;28;20711;-71
2022/07/11 11:15:46;;;;;;;1.08;1.00;;;;;;;22.45;47.61;98686.66;5053672;28;20717;-72
2022/07/11 11:18:25;;;;;;;1.95;1.23;;;;;;;22.36;47.31;98698.31;5053391;28;20704;-72
2022/07/11 11:21:00;;;;;;;1.20;1.20;;;;;;;22.13;47.38;98691.66;5053790;28;20230;-72
2022/07/11 11:23:32;;;;;;;1.80;1.17;;;;;;;22.14;48.16;98687.84;5053452;28;20701;-72
2022/07/11 11:26:06;;;;;;;1.20;1.10;;;;;;;22.83;48.00;98683.13;5053469;28;20201;-71
2022/07/11 11:28:32;;;;;;;1.35;1.20;;;;;;;23.18;46.28;98687.44;5053161;28;20221;-71
2022/07/11 11:31:01;;;;;;;1.63;1.27;;;;;;;23.14;45.62;98679.09;5053344;28;20748;-71
2022/07/11 11:33:30;;;;;;;1.33;1.20;;;;;;;22.98;46.87;98680.28;5053523;28;20209;-71
2022/07/11 11:36:00;;;;;;;2.58;1.23;;;;;;;23.31;45.51;98678.69;5053742;28;20204;-72
2022/07/11 11:38:27;;;;;;;1.48;1.38;;;;;;;22.92;46.58;98683.34;5052839;28;20320;-71
2022/07/11 11:40:53;;;;;;;1.38;1.30;;;;;;;22.77;47.10;98683.44;5053997;28;20223;-72
2022/07/11 11:43:21;;;;;;;3.10;1.42;;;;;;;22.19;47.76;98673.47;5053347;28;20229;-72
2022/07/11 11:45:52;;;;;;;2.83;1.35;;;;;;;22.80;47.85;98680.97;5053213;28;20209;-71
2022/07/11 11:48:35;;;;;;;2.88;1.38;;;;;;;22.73;46.67;98685.91;5052479;28;20308;-71